Thor Maximus — 9V2805 — position and weather

sailwx.info

Track history (hours):
 
Tides and Currents Weather Stations Pressure Air Temp Water Temp Dewpoint Dewpoint Depression Visibility Wind Speed Wind Dir Waves Ship Positions

Thor Maximus

Last reported at 2018-Jul-11 19:09 UTC. Time now 2018-Jul-22 21:53 UTC.
Position N 01°29' E 104°33'.
Warning: this ship's position is 11 days out of date.

Length 190 m; draft 12.2 m.

Type: Cargo ship. MMSI: 564756000.

Date/timePositionNaut miles runAvg speedWind from/ knotsBaromVisibWave heightAir tempDewpointWater temp
2018-Jul-11 19:09N 01°29' E 104°33'315.0
2018-Jul-11 18:56N 01°27' E 104°31'715.5
2018-Jul-11 18:28N 01°22' E 104°26'816.6
2018-Jul-11 17:58N 01°17' E 104°19'715.9
2018-Jul-11 17:30N 01°16' E 104°12'815.2
2018-Jul-11 16:59N 01°15' E 104°04'715.5
2018-Jul-11 16:30N 01°13' E 103°57'715.0
2018-Jul-11 16:00N 01°10' E 103°50'815.3
2018-Jul-11 15:30N 01°06' E 103°44'612.4
2018-Jul-11 15:00N 01°03' E 103°38'713.8
2018-Jul-11 14:30N 01°07' E 103°32'713.7
2018-Jul-11 13:59N 01°10' E 103°26'713.7
2018-Jul-11 13:30N 01°15' E 103°21'713.7
2018-Jul-11 12:59N 01°19' E 103°16'  
Track history (hours):
 
Tides and Currents Weather Stations Pressure Air Temp Water Temp Dewpoint Dewpoint Depression Visibility Wind Speed Wind Dir Waves Ship Positions

Thor Maximus

Last reported at 2018-Jul-11 19:09 UTC. Time now 2018-Jul-22 21:53 UTC.
Position N 01°29' E 104°33'.
Warning: this ship's position is 11 days out of date.

Length 190 m; draft 12.2 m.

Type: Cargo ship. MMSI: 564756000.

Date/timePositionNaut miles runAvg speedWind from/ knotsBaromVisibWave heightAir tempDewpointWater temp
2018-Jul-11 19:09N 01°29' E 104°33'315.0
2018-Jul-11 18:56N 01°27' E 104°31'715.5
2018-Jul-11 18:28N 01°22' E 104°26'816.6
2018-Jul-11 17:58N 01°17' E 104°19'715.9
2018-Jul-11 17:30N 01°16' E 104°12'815.2
2018-Jul-11 16:59N 01°15' E 104°04'715.5
2018-Jul-11 16:30N 01°13' E 103°57'715.0
2018-Jul-11 16:00N 01°10' E 103°50'815.3
2018-Jul-11 15:30N 01°06' E 103°44'612.4
2018-Jul-11 15:00N 01°03' E 103°38'713.8
2018-Jul-11 14:30N 01°07' E 103°32'713.7
2018-Jul-11 13:59N 01°10' E 103°26'713.7
2018-Jul-11 13:30N 01°15' E 103°21'713.7
2018-Jul-11 12:59N 01°19' E 103°16'  

Dump ship's entire track history